^^
Meteo Knjazevac Station Historical Data
Daily Summary for July 4, 2022 Units:  English    Metric   Both
Daily Weekly Monthly Yearly Custom
  High: Low: Average:
Temperature: 57.4 °F 52.3 °F 54.3 °F
Dew Point: 57.1 °F 52 °F 54 °F
Humidity: 99% 99% 99%
Wind Speed: 3.6mph 0mph 1.9mph
Wind Gust: 4mph - -
Wind- - SW
Pressure: 30.19 in 30.15 in -
Precipitation: 0.00 in    
Historical Graphs
 
 
Tabular Data for July 4, 2022
Time Temperature Dew Point Pressure Wind Wind Speed Wind Gust Humidity Rainfall Rate (Hourly) solar Conditions
00:04 57.4 °F 57.1 °F 30.15 in NW 3 mph 4 mph 99% 0.00 in 0 W/m2
00:09 57.4 °F 57.1 °F 30.15 in NW 2 mph 3 mph 99% 0.00 in 0 W/m2
00:14 57.4 °F 57.1 °F 30.15 in NW 2.7 mph 2 mph 99% 0.00 in 0 W/m2
00:19 57.4 °F 57.1 °F 30.15 in WNW 2.2 mph 3 mph 99% 0.00 in 0 W/m2
00:24 57.3 °F 57 °F 30.16 in WNW 2.3 mph 2 mph 99% 0.00 in 0 W/m2
00:29 57.2 °F 56.9 °F 30.16 in NW 1.1 mph 0.7 mph 99% 0.00 in 0 W/m2
00:34 57.1 °F 56.8 °F 30.16 in NW 1.1 mph 2 mph 99% 0.00 in 0 W/m2
00:39 56.9 °F 56.6 °F 30.16 in WNW 0.2 mph 2 mph 99% 0.00 in 0 W/m2
00:44 56.7 °F 56.5 °F 30.15 in SW 0.7 mph   99% 0.00 in 0 W/m2
00:49 56.7 °F 56.3 °F 30.15 in WSW 1.2 mph 1 mph 99% 0.00 in 0 W/m2
00:54 56.4 °F 56.1 °F 30.15 in West 2 mph 2 mph 99% 0.00 in 0 W/m2
00:59 56.2 °F 55.9 °F 30.16 in West 2.5 mph 1.8 mph 99% 0.00 in 0 W/m2
01:04 56 °F 55.7 °F 30.16 in WNW 3.2 mph 3 mph 99% 0.00 in 0 W/m2
01:09 55.9 °F 55.6 °F 30.16 in NW 3.6 mph 2.5 mph 99% 0.00 in 0 W/m2
01:14 55.8 °F 55.5 °F 30.16 in WNW 3.3 mph 4 mph 99% 0.00 in 0 W/m2
01:19 55.8 °F 55.5 °F 30.16 in West 3.2 mph 3 mph 99% 0.00 in 0 W/m2
01:24 55.8 °F 55.5 °F 30.16 in West 3.1 mph 3 mph 99% 0.00 in 0 W/m2
01:29 55.6 °F 55.3 °F 30.16 in West 2.1 mph 3 mph 99% 0.00 in 0 W/m2
01:34 55.5 °F 55.2 °F 30.16 in WNW 1.6 mph 2 mph 99% 0.00 in 0 W/m2
01:39 55.4 °F 55.1 °F 30.16 in WNW 2.2 mph 2 mph 99% 0.00 in 0 W/m2
01:44 55.2 °F 54.9 °F 30.16 in WNW 2.2 mph 2 mph 99% 0.00 in 0 W/m2
01:49 55.2 °F 54.9 °F 30.17 in West 2.2 mph 2 mph 99% 0.00 in 0 W/m2
01:54 55 °F 54.8 °F 30.17 in NW 2.2 mph 1.1 mph 99% 0.00 in 0 W/m2
01:59 55 °F 54.8 °F 30.17 in NNW 0.7 mph 2 mph 99% 0.00 in 0 W/m2
02:04 54.9 °F 54.7 °F 30.17 in Calm   2 mph 99% 0.00 in 0 W/m2
02:09 54.9 °F 54.6 °F 30.17 in NW 1.3 mph 1.6 mph 99% 0.00 in 0 W/m2
02:14 54.8 °F 54.5 °F 30.17 in WNW 2.1 mph 2 mph 99% 0.00 in 0 W/m2
02:19 54.6 °F 54.3 °F 30.17 in NW 2.2 mph 3 mph 99% 0.00 in 0 W/m2
02:24 54.5 °F 54.2 °F 30.17 in NNW 2.2 mph 2 mph 99% 0.00 in 0 W/m2
02:28 54.5 °F 54.2 °F 30.17 in NW 2.4 mph 3 mph 99% 0.00 in 0 W/m2
02:34 54.5 °F 54.2 °F 30.17 in WNW 2.4 mph 3 mph 99% 0.00 in 0 W/m2
02:39 54.5 °F 54.2 °F 30.17 in NW 2 mph 2 mph 99% 0.00 in 0 W/m2
02:44 54.5 °F 54.2 °F 30.17 in NNW 1.9 mph 2 mph 99% 0.00 in 0 W/m2
02:49 54.5 °F 54.2 °F 30.17 in WNW 2.2 mph 2 mph 99% 0.00 in 0 W/m2
02:54 54.3 °F 54 °F 30.17 in West 2.2 mph 1.8 mph 99% 0.00 in 0 W/m2
02:59 54.1 °F 53.9 °F 30.17 in WNW 2.4 mph 2 mph 99% 0.00 in 0 W/m2
03:04 54.1 °F 53.9 °F 30.17 in NW 3 mph 3 mph 99% 0.00 in 0 W/m2
03:09 54.1 °F 53.9 °F 30.17 in WNW 2.8 mph 4 mph 99% 0.00 in 0 W/m2
03:14 54.1 °F 53.9 °F 30.17 in West 1.7 mph 3 mph 99% 0.00 in 0 W/m2
03:19 54 °F 53.7 °F 30.17 in West 1 mph 2 mph 99% 0.00 in 0 W/m2
03:24 53.9 °F 53.6 °F 30.17 in West 0.8 mph 1 mph 99% 0.00 in 0 W/m2
03:29 53.7 °F 53.4 °F 30.17 in West 1.5 mph 0.9 mph 99% 0.00 in 0 W/m2
03:34 53.4 °F 53.1 °F 30.17 in SW 0.5 mph 0.7 mph 99% 0.00 in 0 W/m2
03:39 53.3 °F 53.1 °F 30.17 in WSW 2.4 mph 2 mph 99% 0.00 in 0 W/m2
03:43 53.2 °F 53 °F 30.17 in West 2.7 mph 3 mph 99% 0.00 in 0 W/m2
03:49 53.2 °F 52.9 °F 30.17 in West 3.5 mph 2.2 mph 99% 0.00 in 0 W/m2
03:53 53.1 °F 52.9 °F 30.17 in WNW 3.1 mph 3 mph 99% 0.00 in 0 W/m2
03:59 53.1 °F 52.8 °F 30.17 in WNW 3 mph 3 mph 99% 0.00 in 0 W/m2
04:04 53 °F 52.7 °F 30.17 in WNW 1.4 mph 3 mph 99% 0.00 in 0 W/m2
04:09 52.9 °F 52.6 °F 30.17 in NW 0.8 mph 0.4 mph 99% 0.00 in 0 W/m2
04:13 52.9 °F 52.6 °F 30.17 in WNW 0.8 mph 0.4 mph 99% 0.00 in 0 W/m2
04:19 52.8 °F 52.5 °F 30.17 in SE 1.7 mph 2 mph 99% 0.00 in 0 W/m2
04:24 52.7 °F 52.3 °F 30.17 in NE 1.3 mph 1.3 mph 99% 0.00 in 0 W/m2
04:29 52.5 °F 52.2 °F 30.17 in NNE 0.3 mph 2 mph 99% 0.00 in 0 W/m2
04:34 52.3 °F 52.1 °F 30.17 in South 1 mph 0.4 mph 99% 0.00 in 0 W/m2
04:39 52.3 °F 52.1 °F 30.17 in ESE 2.1 mph 2 mph 99% 0.00 in 0 W/m2
04:44 52.3 °F 52.1 °F 30.17 in NE 0.8 mph 2 mph 99% 0.00 in 0 W/m2
04:49 52.3 °F 52.1 °F 30.17 in NNE 1.6 mph 1.8 mph 99% 0.00 in 0 W/m2
04:54 52.3 °F 52 °F 30.17 in NNE 2.2 mph 2 mph 99% 0.00 in 0 W/m2
04:59 52.3 °F 52.1 °F 30.17 in NNE 1.4 mph 0.7 mph 99% 0.00 in 0 W/m2
05:04 52.3 °F 52.1 °F 30.17 in NNE 0.6 mph 0.2 mph 99% 0.00 in 0 W/m2
05:09 52.5 °F 52.2 °F 30.17 in NNE 2.3 mph 2 mph 99% 0.00 in 0 W/m2
05:14 52.6 °F 52.3 °F 30.17 in NNE 2.3 mph 3 mph 99% 0.00 in 0 W/m2
05:19 52.7 °F 52.4 °F 30.17 in NNE 2.3 mph 1.8 mph 99% 0.00 in 0 W/m2
05:24 52.7 °F 52.4 °F 30.17 in NNE 1.9 mph 2 mph 99% 0.00 in 0 W/m2
05:29 52.7 °F 52.4 °F 30.17 in NNE 2.2 mph 2 mph 99% 0.00 in 0 W/m2
05:33 52.8 °F 52.5 °F 30.17 in NNE 2 mph 3 mph 99% 0.00 in 0 W/m2
05:39 52.9 °F 52.6 °F 30.17 in NNE 2 mph 2 mph 99% 0.00 in 0 W/m2
05:44 52.9 °F 52.6 °F 30.17 in NNE 2 mph 1.1 mph 99% 0.00 in 0 W/m2
05:48 53 °F 52.7 °F 30.18 in NNE 2.2 mph 2 mph 99% 0.00 in 0 W/m2
05:54 53.1 °F 52.9 °F 30.18 in NNE 1 mph 2 mph 99% 0.00 in 1 W/m2
05:59 53.2 °F 53 °F 30.18 in NNW 0.9 mph 0.2 mph 99% 0.00 in 1 W/m2
06:04 53.2 °F 53 °F 30.19 in West 1.6 mph 2 mph 99% 0.00 in 2 W/m2
06:09 53.2 °F 53 °F 30.19 in West 2.1 mph 2 mph 99% 0.00 in 4 W/m2
06:14 53.2 °F 53 °F 30.19 in West 1.9 mph 2 mph 99% 0.00 in 7 W/m2
06:19 53.2 °F 53 °F 30.19 in WSW 2.1 mph 2 mph 99% 0.00 in 10 W/m2
06:24 53.2 °F 53 °F 30.19 in WNW 1.3 mph 2 mph 99% 0.00 in 12 W/m2
Knjazevac, Serbia
Compliments of Weather Underground - 2 mb